sensor_id;sensor_type;location;lat;lon;timestamp;temperature;humidity
7920;DHT22;18778;47.610;9.776;2023-12-04T00:02:11;-9.20;99.90
7920;DHT22;18778;47.610;9.776;2023-12-04T00:07:02;-8.90;99.90
7920;DHT22;18778;47.610;9.776;2023-12-04T00:09:28;-8.90;99.90
7920;DHT22;18778;47.610;9.776;2023-12-04T00:11:54;-8.90;99.90
7920;DHT22;18778;47.610;9.776;2023-12-04T00:14:19;-9.00;99.90
7920;DHT22;18778;47.610;9.776;2023-12-04T00:16:45;-9.00;99.90
7920;DHT22;18778;47.610;9.776;2023-12-04T00:19:10;-9.00;99.90
7920;DHT22;18778;47.610;9.776;2023-12-04T00:21:36;-9.10;99.90
7920;DHT22;18778;47.610;9.776;2023-12-04T00:24:02;-9.00;99.90
7920;DHT22;18778;47.610;9.776;2023-12-04T00:26:28;-9.00;99.90
7920;DHT22;18778;47.610;9.776;2023-12-04T00:28:54;-9.10;99.90
7920;DHT22;18778;47.610;9.776;2023-12-04T00:31:19;-9.30;99.90
7920;DHT22;18778;47.610;9.776;2023-12-04T00:33:45;-9.40;99.90
7920;DHT22;18778;47.610;9.776;2023-12-04T00:36:11;-9.40;99.90
7920;DHT22;18778;47.610;9.776;2023-12-04T00:38:37;-9.40;99.90
7920;DHT22;18778;47.610;9.776;2023-12-04T00:41:02;-9.40;99.90
7920;DHT22;18778;47.610;9.776;2023-12-04T00:43:28;-9.30;99.90
7920;DHT22;18778;47.610;9.776;2023-12-04T00:45:53;-9.40;99.90
7920;DHT22;18778;47.610;9.776;2023-12-04T00:50:45;-9.40;99.90
7920;DHT22;18778;47.610;9.776;2023-12-04T00:53:10;-9.50;99.90
7920;DHT22;18778;47.610;9.776;2023-12-04T00:55:36;-9.60;99.90
7920;DHT22;18778;47.610;9.776;2023-12-04T00:58:02;-9.70;99.90
7920;DHT22;18778;47.610;9.776;2023-12-04T01:00:28;-9.70;99.90
7920;DHT22;18778;47.610;9.776;2023-12-04T01:02:54;-9.70;99.90
7920;DHT22;18778;47.610;9.776;2023-12-04T01:05:19;-9.70;99.90
7920;DHT22;18778;47.610;9.776;2023-12-04T01:07:45;-9.80;99.90
7920;DHT22;18778;47.610;9.776;2023-12-04T01:10:10;-9.60;99.90
7920;DHT22;18778;47.610;9.776;2023-12-04T01:12:36;-9.60;99.90
7920;DHT22;18778;47.610;9.776;2023-12-04T01:15:02;-9.50;99.90
7920;DHT22;18778;47.610;9.776;2023-12-04T01:17:28;-9.50;99.90
7920;DHT22;18778;47.610;9.776;2023-12-04T01:19:54;-9.40;99.90
7920;DHT22;18778;47.610;9.776;2023-12-04T01:22:19;-9.50;99.90
7920;DHT22;18778;47.610;9.776;2023-12-04T01:24:45;-9.50;99.90
7920;DHT22;18778;47.610;9.776;2023-12-04T01:27:10;-9.50;99.90
7920;DHT22;18778;47.610;9.776;2023-12-04T01:29:36;-9.50;99.90
7920;DHT22;18778;47.610;9.776;2023-12-04T01:32:02;-9.50;99.90
7920;DHT22;18778;47.610;9.776;2023-12-04T01:34:28;-9.00;99.90
7920;DHT22;18778;47.610;9.776;2023-12-04T01:39:19;-9.60;99.90
7920;DHT22;18778;47.610;9.776;2023-12-04T01:41:45;-9.60;99.90
7920;DHT22;18778;47.610;9.776;2023-12-04T01:44:10;-9.70;99.90
7920;DHT22;18778;47.610;9.776;2023-12-04T01:46:37;-9.70;99.90
7920;DHT22;18778;47.610;9.776;2023-12-04T01:49:02;-9.80;99.90
7920;DHT22;18778;47.610;9.776;2023-12-04T01:51:28;-9.90;99.90
7920;DHT22;18778;47.610;9.776;2023-12-04T01:53:56;-10.10;99.90
7920;DHT22;18778;47.610;9.776;2023-12-04T01:56:24;-10.00;99.90
7920;DHT22;18778;47.610;9.776;2023-12-04T01:58:49;-9.90;99.90
7920;DHT22;18778;47.610;9.776;2023-12-04T02:03:42;-10.20;99.90
7920;DHT22;18778;47.610;9.776;2023-12-04T02:06:09;-10.20;99.90
7920;DHT22;18778;47.610;9.776;2023-12-04T02:08:35;-10.20;99.90
7920;DHT22;18778;47.610;9.776;2023-12-04T02:11:01;-10.40;99.90
7920;DHT22;18778;47.610;9.776;2023-12-04T02:13:26;-10.10;99.90
7920;DHT22;18778;47.610;9.776;2023-12-04T02:15:54;-9.80;99.90
7920;DHT22;18778;47.610;9.776;2023-12-04T02:18:21;-9.80;99.90
7920;DHT22;18778;47.610;9.776;2023-12-04T02:20:47;-9.90;99.90
7920;DHT22;18778;47.610;9.776;2023-12-04T02:23:13;-10.00;99.90
7920;DHT22;18778;47.610;9.776;2023-12-04T02:25:39;-10.00;99.90
7920;DHT22;18778;47.610;9.776;2023-12-04T02:28:10;-10.00;99.90
7920;DHT22;18778;47.610;9.776;2023-12-04T02:30:37;-10.10;99.90
7920;DHT22;18778;47.610;9.776;2023-12-04T02:33:05;-10.10;99.90
7920;DHT22;18778;47.610;9.776;2023-12-04T02:35:33;-10.20;99.90
7920;DHT22;18778;47.610;9.776;2023-12-04T02:38:00;-10.20;99.90
7920;DHT22;18778;47.610;9.776;2023-12-04T02:40:27;-10.00;99.90
7920;DHT22;18778;47.610;9.776;2023-12-04T02:42:52;-9.80;99.90
7920;DHT22;18778;47.610;9.776;2023-12-04T02:45:18;-9.60;99.90
7920;DHT22;18778;47.610;9.776;2023-12-04T02:47:43;-9.60;99.90
7920;DHT22;18778;47.610;9.776;2023-12-04T02:52:35;-9.40;99.90
7920;DHT22;18778;47.610;9.776;2023-12-04T02:55:00;-9.40;99.90
7920;DHT22;18778;47.610;9.776;2023-12-04T02:57:26;-9.40;99.90
7920;DHT22;18778;47.610;9.776;2023-12-04T02:59:52;-9.50;99.90
7920;DHT22;18778;47.610;9.776;2023-12-04T03:02:18;-9.50;99.90
7920;DHT22;18778;47.610;9.776;2023-12-04T03:04:45;-9.50;99.90
7920;DHT22;18778;47.610;9.776;2023-12-04T03:07:10;-9.50;99.90
7920;DHT22;18778;47.610;9.776;2023-12-04T03:12:02;-9.70;99.90
7920;DHT22;18778;47.610;9.776;2023-12-04T03:14:28;-9.70;99.90
7920;DHT22;18778;47.610;9.776;2023-12-04T03:16:53;-9.80;99.90
7920;DHT22;18778;47.610;9.776;2023-12-04T03:19:19;-9.80;99.90
7920;DHT22;18778;47.610;9.776;2023-12-04T03:21:44;-9.80;99.90
7920;DHT22;18778;47.610;9.776;2023-12-04T03:24:10;-9.90;99.90
7920;DHT22;18778;47.610;9.776;2023-12-04T03:26:35;-9.90;99.90
7920;DHT22;18778;47.610;9.776;2023-12-04T03:29:01;-9.90;99.90
7920;DHT22;18778;47.610;9.776;2023-12-04T03:31:26;-10.00;99.90
7920;DHT22;18778;47.610;9.776;2023-12-04T03:33:53;-10.00;99.90
7920;DHT22;18778;47.610;9.776;2023-12-04T03:36:19;-9.80;99.90
7920;DHT22;18778;47.610;9.776;2023-12-04T03:38:44;-9.80;99.90
7920;DHT22;18778;47.610;9.776;2023-12-04T03:41:14;-9.80;99.90
7920;DHT22;18778;47.610;9.776;2023-12-04T03:43:40;-9.70;99.90
7920;DHT22;18778;47.610;9.776;2023-12-04T03:46:06;-9.70;99.90
7920;DHT22;18778;47.610;9.776;2023-12-04T03:48:32;-9.80;99.90
7920;DHT22;18778;47.610;9.776;2023-12-04T03:50:57;-9.70;99.90
7920;DHT22;18778;47.610;9.776;2023-12-04T03:53:23;-9.60;99.90
7920;DHT22;18778;47.610;9.776;2023-12-04T03:55:48;-9.50;99.90
7920;DHT22;18778;47.610;9.776;2023-12-04T03:58:14;-9.50;99.90
7920;DHT22;18778;47.610;9.776;2023-12-04T04:00:40;-9.50;99.90
7920;DHT22;18778;47.610;9.776;2023-12-04T04:03:09;-9.40;99.90
7920;DHT22;18778;47.610;9.776;2023-12-04T04:05:34;-9.40;99.90
7920;DHT22;18778;47.610;9.776;2023-12-04T04:08:00;-9.40;99.90
7920;DHT22;18778;47.610;9.776;2023-12-04T04:10:26;-9.40;99.90
7920;DHT22;18778;47.610;9.776;2023-12-04T04:12:51;-9.30;99.90
7920;DHT22;18778;47.610;9.776;2023-12-04T04:15:17;-9.20;99.90
7920;DHT22;18778;47.610;9.776;2023-12-04T04:17:42;-9.20;99.90
7920;DHT22;18778;47.610;9.776;2023-12-04T04:20:08;-9.10;99.90
7920;DHT22;18778;47.610;9.776;2023-12-04T04:22:34;-9.10;99.90
7920;DHT22;18778;47.610;9.776;2023-12-04T04:25:07;-9.00;99.90
7920;DHT22;18778;47.610;9.776;2023-12-04T04:27:33;-9.00;99.90
7920;DHT22;18778;47.610;9.776;2023-12-04T04:29:59;-8.90;99.90
7920;DHT22;18778;47.610;9.776;2023-12-04T04:32:25;-8.90;99.90
7920;DHT22;18778;47.610;9.776;2023-12-04T04:34:50;-8.50;99.90
7920;DHT22;18778;47.610;9.776;2023-12-04T04:37:16;-8.60;99.90
7920;DHT22;18778;47.610;9.776;2023-12-04T04:39:41;-8.50;99.90
7920;DHT22;18778;47.610;9.776;2023-12-04T04:44:33;-8.40;99.90
7920;DHT22;18778;47.610;9.776;2023-12-04T04:46:59;-8.30;99.90
7920;DHT22;18778;47.610;9.776;2023-12-04T04:49:25;-8.30;99.90
7920;DHT22;18778;47.610;9.776;2023-12-04T04:51:50;-8.30;99.90
7920;DHT22;18778;47.610;9.776;2023-12-04T04:54:16;-8.30;99.90
7920;DHT22;18778;47.610;9.776;2023-12-04T04:56:41;-8.30;99.90
7920;DHT22;18778;47.610;9.776;2023-12-04T04:59:07;-8.20;99.90
7920;DHT22;18778;47.610;9.776;2023-12-04T05:01:32;-8.30;99.90
7920;DHT22;18778;47.610;9.776;2023-12-04T05:03:58;-8.30;99.90
7920;DHT22;18778;47.610;9.776;2023-12-04T05:06:24;-8.30;99.90
7920;DHT22;18778;47.610;9.776;2023-12-04T05:08:49;-8.20;99.90
7920;DHT22;18778;47.610;9.776;2023-12-04T05:11:18;-8.30;99.90
7920;DHT22;18778;47.610;9.776;2023-12-04T05:13:47;-8.20;99.90
7920;DHT22;18778;47.610;9.776;2023-12-04T05:16:12;-8.00;99.90
7920;DHT22;18778;47.610;9.776;2023-12-04T05:18:41;-8.00;99.90
7920;DHT22;18778;47.610;9.776;2023-12-04T05:21:10;-8.00;99.90
7920;DHT22;18778;47.610;9.776;2023-12-04T05:23:37;-7.90;99.90
7920;DHT22;18778;47.610;9.776;2023-12-04T05:26:03;-7.80;99.90
7920;DHT22;18778;47.610;9.776;2023-12-04T05:28:28;-7.70;99.90
7920;DHT22;18778;47.610;9.776;2023-12-04T05:30:54;-7.60;99.90
7920;DHT22;18778;47.610;9.776;2023-12-04T05:33:19;-7.60;99.90
7920;DHT22;18778;47.610;9.776;2023-12-04T05:35:47;-7.40;99.90
7920;DHT22;18778;47.610;9.776;2023-12-04T05:38:13;-7.40;99.90
7920;DHT22;18778;47.610;9.776;2023-12-04T05:40:39;-7.40;99.90
7920;DHT22;18778;47.610;9.776;2023-12-04T05:43:04;-7.30;99.90
7920;DHT22;18778;47.610;9.776;2023-12-04T05:45:30;-7.20;99.90
7920;DHT22;18778;47.610;9.776;2023-12-04T05:47:55;-7.20;99.90
7920;DHT22;18778;47.610;9.776;2023-12-04T05:52:47;-7.00;99.90
7920;DHT22;18778;47.610;9.776;2023-12-04T05:55:13;-6.90;99.90
7920;DHT22;18778;47.610;9.776;2023-12-04T05:57:39;-7.00;99.90
7920;DHT22;18778;47.610;9.776;2023-12-04T06:00:06;-6.90;99.90
7920;DHT22;18778;47.610;9.776;2023-12-04T06:02:43;-6.80;99.90
7920;DHT22;18778;47.610;9.776;2023-12-04T06:05:10;-6.70;99.90
7920;DHT22;18778;47.610;9.776;2023-12-04T06:07:36;-6.80;99.90
7920;DHT22;18778;47.610;9.776;2023-12-04T06:10:03;-6.70;99.90
7920;DHT22;18778;47.610;9.776;2023-12-04T06:12:32;-6.50;99.90
7920;DHT22;18778;47.610;9.776;2023-12-04T06:14:57;-6.40;99.90
7920;DHT22;18778;47.610;9.776;2023-12-04T06:17:24;-6.50;99.90
7920;DHT22;18778;47.610;9.776;2023-12-04T06:19:50;-6.40;99.90
7920;DHT22;18778;47.610;9.776;2023-12-04T06:22:15;-6.40;99.90
7920;DHT22;18778;47.610;9.776;2023-12-04T06:24:44;-6.50;99.90
7920;DHT22;18778;47.610;9.776;2023-12-04T06:27:15;-6.50;99.90
7920;DHT22;18778;47.610;9.776;2023-12-04T06:29:41;-6.60;99.90
7920;DHT22;18778;47.610;9.776;2023-12-04T06:46:48;-7.10;99.90
7920;DHT22;18778;47.610;9.776;2023-12-04T06:49:17;-7.00;99.90
7920;DHT22;18778;47.610;9.776;2023-12-04T07:13:41;-6.90;99.90
7920;DHT22;18778;47.610;9.776;2023-12-04T07:38:04;-7.00;99.90
7920;DHT22;18778;47.610;9.776;2023-12-04T07:40:29;-6.90;99.90
7920;DHT22;18778;47.610;9.776;2023-12-04T07:42:55;-6.90;99.90
7920;DHT22;18778;47.610;9.776;2023-12-04T07:47:46;-6.70;99.90
7920;DHT22;18778;47.610;9.776;2023-12-04T07:52:38;-6.60;99.90
7920;DHT22;18778;47.610;9.776;2023-12-04T07:59:57;-6.30;99.90
7920;DHT22;18778;47.610;9.776;2023-12-04T08:04:49;-6.10;99.90
7920;DHT22;18778;47.610;9.776;2023-12-04T08:16:59;-5.80;99.90
7920;DHT22;18778;47.610;9.776;2023-12-04T08:26:45;-5.70;99.90
7920;DHT22;18778;47.610;9.776;2023-12-04T08:46:13;-5.20;99.90
7920;DHT22;18778;47.610;9.776;2023-12-04T08:48:40;-5.10;99.90
7920;DHT22;18778;47.610;9.776;2023-12-04T09:17:54;-4.40;99.90
7920;DHT22;18778;47.610;9.776;2023-12-04T09:20:19;-4.50;99.90
7920;DHT22;18778;47.610;9.776;2023-12-04T09:25:11;-4.20;99.90
7920;DHT22;18778;47.610;9.776;2023-12-04T09:30:03;-3.70;99.90
7920;DHT22;18778;47.610;9.776;2023-12-04T09:32:30;-3.50;99.90
7920;DHT22;18778;47.610;9.776;2023-12-04T09:42:15;-2.50;99.90
7920;DHT22;18778;47.610;9.776;2023-12-04T09:52:02;-2.50;99.90
7920;DHT22;18778;47.610;9.776;2023-12-04T09:56:56;-2.60;99.90
7920;DHT22;18778;47.610;9.776;2023-12-04T09:59:24;-2.50;99.90
7920;DHT22;18778;47.610;9.776;2023-12-04T10:01:52;-2.50;99.90
7920;DHT22;18778;47.610;9.776;2023-12-04T10:04:21;-2.50;99.90
7920;DHT22;18778;47.610;9.776;2023-12-04T10:06:50;-2.10;99.90
7920;DHT22;18778;47.610;9.776;2023-12-04T10:11:45;-1.90;99.90
7920;DHT22;18778;47.610;9.776;2023-12-04T10:29:03;-2.00;99.90
7920;DHT22;18778;47.610;9.776;2023-12-04T10:31:33;-1.90;99.90
7920;DHT22;18778;47.610;9.776;2023-12-04T10:46:19;-1.20;99.90
7920;DHT22;18778;47.610;9.776;2023-12-04T10:48:47;-1.00;99.90
7920;DHT22;18778;47.610;9.776;2023-12-04T10:51:13;-1.10;99.90
7920;DHT22;18778;47.610;9.776;2023-12-04T10:56:10;-0.20;99.90
7920;DHT22;18778;47.610;9.776;2023-12-04T11:11:03;1.10;99.90
7920;DHT22;18778;47.610;9.776;2023-12-04T11:13:34;0.90;99.90
7920;DHT22;18778;47.610;9.776;2023-12-04T11:16:02;0.80;99.90
7920;DHT22;18778;47.610;9.776;2023-12-04T11:18:31;0.50;99.90
7920;DHT22;18778;47.610;9.776;2023-12-04T11:21:07;0.50;99.90
7920;DHT22;18778;47.610;9.776;2023-12-04T11:23:34;0.50;99.90
7920;DHT22;18778;47.610;9.776;2023-12-04T11:26:01;0.80;99.90
7920;DHT22;18778;47.610;9.776;2023-12-04T11:28:28;1.30;99.90
7920;DHT22;18778;47.610;9.776;2023-12-04T11:30:54;1.60;99.90
7920;DHT22;18778;47.610;9.776;2023-12-04T11:33:20;1.60;99.90
7920;DHT22;18778;47.610;9.776;2023-12-04T11:38:15;1.50;99.90
7920;DHT22;18778;47.610;9.776;2023-12-04T11:40:42;2.10;99.90
7920;DHT22;18778;47.610;9.776;2023-12-04T11:43:27;2.80;99.90
7920;DHT22;18778;47.610;9.776;2023-12-04T11:46:10;3.50;99.90
7920;DHT22;18778;47.610;9.776;2023-12-04T11:48:39;4.00;99.90
7920;DHT22;18778;47.610;9.776;2023-12-04T11:51:08;4.60;99.90
7920;DHT22;18778;47.610;9.776;2023-12-04T11:53:44;4.90;99.90
7920;DHT22;18778;47.610;9.776;2023-12-04T11:56:13;4.10;99.90
7920;DHT22;18778;47.610;9.776;2023-12-04T11:58:43;4.10;99.90
7920;DHT22;18778;47.610;9.776;2023-12-04T12:01:08;3.50;99.90
7920;DHT22;18778;47.610;9.776;2023-12-04T12:03:34;2.90;99.90
7920;DHT22;18778;47.610;9.776;2023-12-04T12:06:00;3.00;99.90
7920;DHT22;18778;47.610;9.776;2023-12-04T12:08:28;2.90;99.90
7920;DHT22;18778;47.610;9.776;2023-12-04T12:10:54;3.00;99.90
7920;DHT22;18778;47.610;9.776;2023-12-04T12:13:21;3.00;99.90
7920;DHT22;18778;47.610;9.776;2023-12-04T12:15:47;2.90;99.90
7920;DHT22;18778;47.610;9.776;2023-12-04T12:18:16;3.10;99.90
7920;DHT22;18778;47.610;9.776;2023-12-04T12:20:41;2.70;99.90
7920;DHT22;18778;47.610;9.776;2023-12-04T12:23:07;2.70;99.90
7920;DHT22;18778;47.610;9.776;2023-12-04T12:25:33;2.90;99.90
7920;DHT22;18778;47.610;9.776;2023-12-04T12:28:02;2.90;99.90
7920;DHT22;18778;47.610;9.776;2023-12-04T12:30:28;2.70;99.90
7920;DHT22;18778;47.610;9.776;2023-12-04T12:32:53;2.50;99.90
7920;DHT22;18778;47.610;9.776;2023-12-04T12:40:11;1.70;99.90
7920;DHT22;18778;47.610;9.776;2023-12-04T12:42:37;1.60;99.90
7920;DHT22;18778;47.610;9.776;2023-12-04T12:45:07;1.40;99.90
7920;DHT22;18778;47.610;9.776;2023-12-04T12:47:35;1.40;99.90
7920;DHT22;18778;47.610;9.776;2023-12-04T12:50:01;1.20;99.90
7920;DHT22;18778;47.610;9.776;2023-12-04T12:52:28;1.20;99.90
7920;DHT22;18778;47.610;9.776;2023-12-04T12:57:20;1.20;99.90
7920;DHT22;18778;47.610;9.776;2023-12-04T13:02:12;1.30;99.90
7920;DHT22;18778;47.610;9.776;2023-12-04T13:04:39;1.30;99.90
7920;DHT22;18778;47.610;9.776;2023-12-04T13:07:05;1.10;99.90
7920;DHT22;18778;47.610;9.776;2023-12-04T13:09:35;1.30;99.90
7920;DHT22;18778;47.610;9.776;2023-12-04T13:12:01;1.40;99.90
7920;DHT22;18778;47.610;9.776;2023-12-04T13:14:27;1.50;99.90
7920;DHT22;18778;47.610;9.776;2023-12-04T13:16:52;1.80;99.90
7920;DHT22;18778;47.610;9.776;2023-12-04T13:19:20;2.20;99.90
7920;DHT22;18778;47.610;9.776;2023-12-04T13:21:46;2.50;99.90
7920;DHT22;18778;47.610;9.776;2023-12-04T13:24:12;2.60;99.90
7920;DHT22;18778;47.610;9.776;2023-12-04T13:26:37;5.70;99.90
7920;DHT22;18778;47.610;9.776;2023-12-04T13:29:03;2.50;99.90
7920;DHT22;18778;47.610;9.776;2023-12-04T13:31:28;2.30;99.90
7920;DHT22;18778;47.610;9.776;2023-12-04T13:33:54;2.20;99.90
7920;DHT22;18778;47.610;9.776;2023-12-04T13:36:20;2.40;99.90
7920;DHT22;18778;47.610;9.776;2023-12-04T13:38:45;2.40;99.90
7920;DHT22;18778;47.610;9.776;2023-12-04T13:41:11;2.40;99.90
7920;DHT22;18778;47.610;9.776;2023-12-04T13:43:55;2.30;99.90
7920;DHT22;18778;47.610;9.776;2023-12-04T13:46:21;2.40;99.90
7920;DHT22;18778;47.610;9.776;2023-12-04T13:48:47;2.20;99.90
7920;DHT22;18778;47.610;9.776;2023-12-04T13:51:13;2.20;99.90
7920;DHT22;18778;47.610;9.776;2023-12-04T13:53:39;1.60;99.90
7920;DHT22;18778;47.610;9.776;2023-12-04T13:56:11;1.30;99.90
7920;DHT22;18778;47.610;9.776;2023-12-04T13:58:48;1.00;99.90
7920;DHT22;18778;47.610;9.776;2023-12-04T14:01:24;0.60;99.90
7920;DHT22;18778;47.610;9.776;2023-12-04T14:03:52;0.60;99.90
7920;DHT22;18778;47.610;9.776;2023-12-04T14:06:18;2.20;99.90
7920;DHT22;18778;47.610;9.776;2023-12-04T14:08:44;0.40;99.90
7920;DHT22;18778;47.610;9.776;2023-12-04T14:11:11;0.40;99.90
7920;DHT22;18778;47.610;9.776;2023-12-04T14:13:37;0.20;99.90
7920;DHT22;18778;47.610;9.776;2023-12-04T14:16:04;0.20;99.90
7920;DHT22;18778;47.610;9.776;2023-12-04T14:20:57;-0.10;99.90
7920;DHT22;18778;47.610;9.776;2023-12-04T14:23:23;-0.30;99.90
7920;DHT22;18778;47.610;9.776;2023-12-04T14:25:49;-0.30;99.90
7920;DHT22;18778;47.610;9.776;2023-12-04T14:28:14;-0.20;99.90
7920;DHT22;18778;47.610;9.776;2023-12-04T14:33:06;-0.20;99.90
7920;DHT22;18778;47.610;9.776;2023-12-04T14:35:32;-0.40;99.90
7920;DHT22;18778;47.610;9.776;2023-12-04T14:47:42;-0.80;99.90
7920;DHT22;18778;47.610;9.776;2023-12-04T14:50:08;-1.00;99.90
7920;DHT22;18778;47.610;9.776;2023-12-04T14:52:35;-1.10;99.90
7920;DHT22;18778;47.610;9.776;2023-12-04T14:55:04;-1.10;99.90
7920;DHT22;18778;47.610;9.776;2023-12-04T14:57:35;-1.10;99.90
7920;DHT22;18778;47.610;9.776;2023-12-04T15:00:22;-1.20;99.90
7920;DHT22;18778;47.610;9.776;2023-12-04T15:03:13;-1.40;99.90
7920;DHT22;18778;47.610;9.776;2023-12-04T15:08:38;-1.30;99.90
7920;DHT22;18778;47.610;9.776;2023-12-04T15:11:23;-1.40;99.90
7920;DHT22;18778;47.610;9.776;2023-12-04T15:13:48;-1.40;99.90
7920;DHT22;18778;47.610;9.776;2023-12-04T15:16:22;-1.40;99.90
7920;DHT22;18778;47.610;9.776;2023-12-04T15:19:05;-1.40;99.90
7920;DHT22;18778;47.610;9.776;2023-12-04T15:21:30;-1.30;99.90
7920;DHT22;18778;47.610;9.776;2023-12-04T15:23:56;-1.30;99.90
7920;DHT22;18778;47.610;9.776;2023-12-04T15:26:22;-1.40;99.90
7920;DHT22;18778;47.610;9.776;2023-12-04T15:28:48;-1.30;99.90
7920;DHT22;18778;47.610;9.776;2023-12-04T15:31:14;-1.20;99.90
7920;DHT22;18778;47.610;9.776;2023-12-04T15:33:40;-1.30;99.90
7920;DHT22;18778;47.610;9.776;2023-12-04T15:36:05;-1.30;99.90
7920;DHT22;18778;47.610;9.776;2023-12-04T15:38:32;-1.30;99.90
7920;DHT22;18778;47.610;9.776;2023-12-04T15:43:24;-1.40;99.90
7920;DHT22;18778;47.610;9.776;2023-12-04T15:48:15;-1.30;99.90
7920;DHT22;18778;47.610;9.776;2023-12-04T15:50:41;-1.30;99.90
7920;DHT22;18778;47.610;9.776;2023-12-04T15:53:07;-1.20;99.90
7920;DHT22;18778;47.610;9.776;2023-12-04T16:02:52;-1.20;99.90
7920;DHT22;18778;47.610;9.776;2023-12-04T16:05:18;-1.20;99.90
7920;DHT22;18778;47.610;9.776;2023-12-04T16:10:10;-1.20;99.90
7920;DHT22;18778;47.610;9.776;2023-12-04T16:15:07;-1.20;99.90
7920;DHT22;18778;47.610;9.776;2023-12-04T16:17:33;-1.20;99.90
7920;DHT22;18778;47.610;9.776;2023-12-04T16:20:00;-1.20;99.90
7920;DHT22;18778;47.610;9.776;2023-12-04T16:22:27;-1.30;99.90
7920;DHT22;18778;47.610;9.776;2023-12-04T16:24:53;-1.30;99.90
7920;DHT22;18778;47.610;9.776;2023-12-04T16:29:45;-1.20;99.90
7920;DHT22;18778;47.610;9.776;2023-12-04T16:32:10;-1.20;99.90
7920;DHT22;18778;47.610;9.776;2023-12-04T16:34:36;-1.20;99.90
7920;DHT22;18778;47.610;9.776;2023-12-04T16:37:01;-1.20;99.90
7920;DHT22;18778;47.610;9.776;2023-12-04T16:39:27;-1.20;99.90
7920;DHT22;18778;47.610;9.776;2023-12-04T16:41:53;-1.10;99.90
7920;DHT22;18778;47.610;9.776;2023-12-04T16:44:22;-1.10;99.90
7920;DHT22;18778;47.610;9.776;2023-12-04T16:46:48;-1.20;99.90
7920;DHT22;18778;47.610;9.776;2023-12-04T16:49:21;-1.20;99.90
7920;DHT22;18778;47.610;9.776;2023-12-04T16:51:47;-1.10;99.90
7920;DHT22;18778;47.610;9.776;2023-12-04T16:54:12;-1.20;99.90
7920;DHT22;18778;47.610;9.776;2023-12-04T16:56:38;-1.30;99.90
7920;DHT22;18778;47.610;9.776;2023-12-04T16:59:04;-1.30;99.90
7920;DHT22;18778;47.610;9.776;2023-12-04T17:01:29;-1.10;99.90
7920;DHT22;18778;47.610;9.776;2023-12-04T17:03:55;-1.20;99.90
7920;DHT22;18778;47.610;9.776;2023-12-04T17:06:21;-1.10;99.90
7920;DHT22;18778;47.610;9.776;2023-12-04T17:08:46;-1.00;99.90
7920;DHT22;18778;47.610;9.776;2023-12-04T17:11:13;-1.00;99.90
7920;DHT22;18778;47.610;9.776;2023-12-04T17:13:38;-1.00;99.90
7920;DHT22;18778;47.610;9.776;2023-12-04T17:16:05;-1.00;99.90
7920;DHT22;18778;47.610;9.776;2023-12-04T17:18:31;-0.90;99.90
7920;DHT22;18778;47.610;9.776;2023-12-04T17:20:57;-0.90;99.90
7920;DHT22;18778;47.610;9.776;2023-12-04T17:23:23;-0.80;99.90
7920;DHT22;18778;47.610;9.776;2023-12-04T17:25:50;-0.80;99.90
7920;DHT22;18778;47.610;9.776;2023-12-04T17:28:17;-0.80;99.90
7920;DHT22;18778;47.610;9.776;2023-12-04T17:30:44;-0.70;99.90
7920;DHT22;18778;47.610;9.776;2023-12-04T17:33:10;-0.80;99.90
7920;DHT22;18778;47.610;9.776;2023-12-04T17:35:36;-0.70;99.90
7920;DHT22;18778;47.610;9.776;2023-12-04T17:38:01;-0.80;99.90
7920;DHT22;18778;47.610;9.776;2023-12-04T17:40:27;-0.60;99.90
7920;DHT22;18778;47.610;9.776;2023-12-04T17:42:53;-0.60;99.90
7920;DHT22;18778;47.610;9.776;2023-12-04T17:45:19;-0.60;99.90
7920;DHT22;18778;47.610;9.776;2023-12-04T17:47:44;-0.40;99.90
7920;DHT22;18778;47.610;9.776;2023-12-04T17:50:10;-0.40;99.90
7920;DHT22;18778;47.610;9.776;2023-12-04T17:52:37;-0.40;99.90
7920;DHT22;18778;47.610;9.776;2023-12-04T17:55:03;-0.40;99.90
7920;DHT22;18778;47.610;9.776;2023-12-04T17:57:28;-0.40;99.90
7920;DHT22;18778;47.610;9.776;2023-12-04T17:59:54;-0.30;99.90
7920;DHT22;18778;47.610;9.776;2023-12-04T18:02:20;-0.30;99.90
7920;DHT22;18778;47.610;9.776;2023-12-04T18:04:46;-0.30;99.90
7920;DHT22;18778;47.610;9.776;2023-12-04T18:07:12;-0.20;99.90
7920;DHT22;18778;47.610;9.776;2023-12-04T18:09:38;-0.20;99.90
7920;DHT22;18778;47.610;9.776;2023-12-04T18:12:05;-0.10;99.90
7920;DHT22;18778;47.610;9.776;2023-12-04T18:14:30;0.00;99.90
7920;DHT22;18778;47.610;9.776;2023-12-04T18:16:56;0.00;99.90
7920;DHT22;18778;47.610;9.776;2023-12-04T18:19:22;0.00;99.90
7920;DHT22;18778;47.610;9.776;2023-12-04T18:21:48;0.10;99.90
7920;DHT22;18778;47.610;9.776;2023-12-04T18:24:22;0.10;99.90
7920;DHT22;18778;47.610;9.776;2023-12-04T18:26:48;0.20;99.90
7920;DHT22;18778;47.610;9.776;2023-12-04T18:29:14;0.30;99.90
7920;DHT22;18778;47.610;9.776;2023-12-04T18:31:41;0.30;99.90
7920;DHT22;18778;47.610;9.776;2023-12-04T18:34:07;0.40;99.90
7920;DHT22;18778;47.610;9.776;2023-12-04T18:36:37;0.40;99.90
7920;DHT22;18778;47.610;9.776;2023-12-04T18:39:05;0.40;99.90
7920;DHT22;18778;47.610;9.776;2023-12-04T18:41:31;0.80;99.90
7920;DHT22;18778;47.610;9.776;2023-12-04T18:43:57;1.00;99.90
7920;DHT22;18778;47.610;9.776;2023-12-04T18:46:24;1.20;99.90
7920;DHT22;18778;47.610;9.776;2023-12-04T18:48:54;1.20;99.90
7920;DHT22;18778;47.610;9.776;2023-12-04T18:51:20;1.30;99.90
7920;DHT22;18778;47.610;9.776;2023-12-04T18:53:46;1.40;99.90
7920;DHT22;18778;47.610;9.776;2023-12-04T18:56:12;1.50;99.90
7920;DHT22;18778;47.610;9.776;2023-12-04T18:58:37;1.60;99.90
7920;DHT22;18778;47.610;9.776;2023-12-04T19:01:03;1.50;99.90
7920;DHT22;18778;47.610;9.776;2023-12-04T19:03:29;1.60;99.90
7920;DHT22;18778;47.610;9.776;2023-12-04T19:05:54;1.50;99.90
7920;DHT22;18778;47.610;9.776;2023-12-04T19:08:20;1.50;99.90
7920;DHT22;18778;47.610;9.776;2023-12-04T19:10:46;1.20;99.90
7920;DHT22;18778;47.610;9.776;2023-12-04T19:13:12;1.30;99.90
7920;DHT22;18778;47.610;9.776;2023-12-04T19:15:38;1.10;99.90
7920;DHT22;18778;47.610;9.776;2023-12-04T19:18:04;1.20;99.90
7920;DHT22;18778;47.610;9.776;2023-12-04T19:20:29;1.20;99.90
7920;DHT22;18778;47.610;9.776;2023-12-04T19:22:56;1.10;99.90
7920;DHT22;18778;47.610;9.776;2023-12-04T19:25:22;1.00;99.90
7920;DHT22;18778;47.610;9.776;2023-12-04T19:27:49;1.00;99.90
7920;DHT22;18778;47.610;9.776;2023-12-04T19:30:15;1.00;99.90
7920;DHT22;18778;47.610;9.776;2023-12-04T19:32:41;1.10;99.90
7920;DHT22;18778;47.610;9.776;2023-12-04T19:35:08;1.00;99.90
7920;DHT22;18778;47.610;9.776;2023-12-04T19:37:34;0.90;99.90
7920;DHT22;18778;47.610;9.776;2023-12-04T19:40:00;0.90;99.90
7920;DHT22;18778;47.610;9.776;2023-12-04T19:42:25;0.80;99.90
7920;DHT22;18778;47.610;9.776;2023-12-04T19:44:52;0.70;99.90
7920;DHT22;18778;47.610;9.776;2023-12-04T19:47:18;0.60;99.90
7920;DHT22;18778;47.610;9.776;2023-12-04T19:49:44;0.50;99.90
7920;DHT22;18778;47.610;9.776;2023-12-04T19:52:09;0.60;99.90
7920;DHT22;18778;47.610;9.776;2023-12-04T19:54:41;0.60;99.90
7920;DHT22;18778;47.610;9.776;2023-12-04T19:57:07;0.60;99.90
7920;DHT22;18778;47.610;9.776;2023-12-04T19:59:33;0.70;99.90
7920;DHT22;18778;47.610;9.776;2023-12-04T20:01:58;0.70;99.90
7920;DHT22;18778;47.610;9.776;2023-12-04T20:04:24;0.50;99.90
7920;DHT22;18778;47.610;9.776;2023-12-04T20:06:50;0.70;99.90
7920;DHT22;18778;47.610;9.776;2023-12-04T20:09:16;0.80;99.90
7920;DHT22;18778;47.610;9.776;2023-12-04T20:11:41;0.70;99.90
7920;DHT22;18778;47.610;9.776;2023-12-04T20:14:08;0.70;99.90